sensor_id;sensor_type;location;lat;lon;timestamp;temperature;humidity
47757;SHT35;22147;52.388;13.390;2022-07-22T00:00:00;20.14;84.81
47757;SHT35;22147;52.388;13.390;2022-07-22T00:02:28;20.13;84.83
47757;SHT35;22147;52.388;13.390;2022-07-22T00:04:55;20.10;84.82
47757;SHT35;22147;52.388;13.390;2022-07-22T00:07:22;20.08;85.00
47757;SHT35;22147;52.388;13.390;2022-07-22T00:09:50;19.99;84.96
47757;SHT35;22147;52.388;13.390;2022-07-22T00:12:17;19.98;85.78
47757;SHT35;22147;52.388;13.390;2022-07-22T00:14:44;19.98;85.63
47757;SHT35;22147;52.388;13.390;2022-07-22T00:17:12;19.99;85.73
47757;SHT35;22147;52.388;13.390;2022-07-22T00:19:39;19.99;85.05
47757;SHT35;22147;52.388;13.390;2022-07-22T00:22:06;20.00;85.34
47757;SHT35;22147;52.388;13.390;2022-07-22T00:24:33;19.93;86.01
47757;SHT35;22147;52.388;13.390;2022-07-22T00:27:00;19.89;86.19
47757;SHT35;22147;52.388;13.390;2022-07-22T00:29:27;19.90;85.83
47757;SHT35;22147;52.388;13.390;2022-07-22T00:31:54;19.81;86.68
47757;SHT35;22147;52.388;13.390;2022-07-22T00:34:22;19.68;86.53
47757;SHT35;22147;52.388;13.390;2022-07-22T00:36:49;19.63;86.67
47757;SHT35;22147;52.388;13.390;2022-07-22T00:39:16;19.47;86.20
47757;SHT35;22147;52.388;13.390;2022-07-22T00:41:43;19.52;86.85
47757;SHT35;22147;52.388;13.390;2022-07-22T00:44:11;19.61;86.78
47757;SHT35;22147;52.388;13.390;2022-07-22T00:46:39;19.63;86.54
47757;SHT35;22147;52.388;13.390;2022-07-22T00:49:08;19.71;86.49
47757;SHT35;22147;52.388;13.390;2022-07-22T00:59:42;19.55;86.43
47757;SHT35;22147;52.388;13.390;2022-07-22T01:02:09;19.55;86.31
47757;SHT35;22147;52.388;13.390;2022-07-22T01:04:37;19.48;86.01
47757;SHT35;22147;52.388;13.390;2022-07-22T01:07:04;19.50;85.60
47757;SHT35;22147;52.388;13.390;2022-07-22T01:09:31;19.44;85.27
47757;SHT35;22147;52.388;13.390;2022-07-22T01:12:01;19.38;85.30
47757;SHT35;22147;52.388;13.390;2022-07-22T01:14:28;19.31;85.44
47757;SHT35;22147;52.388;13.390;2022-07-22T01:16:55;19.28;86.10
47757;SHT35;22147;52.388;13.390;2022-07-22T01:19:22;19.37;86.09
47757;SHT35;22147;52.388;13.390;2022-07-22T01:21:49;19.40;85.80
47757;SHT35;22147;52.388;13.390;2022-07-22T01:24:16;19.32;85.39
47757;SHT35;22147;52.388;13.390;2022-07-22T01:26:44;19.25;85.38
47757;SHT35;22147;52.388;13.390;2022-07-22T01:29:11;19.21;84.98
47757;SHT35;22147;52.388;13.390;2022-07-22T01:31:38;19.17;85.55
47757;SHT35;22147;52.388;13.390;2022-07-22T01:34:05;19.15;85.44
47757;SHT35;22147;52.388;13.390;2022-07-22T01:36:32;19.24;85.29
47757;SHT35;22147;52.388;13.390;2022-07-22T01:38:59;19.24;85.15
47757;SHT35;22147;52.388;13.390;2022-07-22T01:41:27;19.24;85.00
47757;SHT35;22147;52.388;13.390;2022-07-22T01:43:54;19.10;85.62
47757;SHT35;22147;52.388;13.390;2022-07-22T01:46:21;19.04;86.52
47757;SHT35;22147;52.388;13.390;2022-07-22T01:48:52;18.99;86.28
47757;SHT35;22147;52.388;13.390;2022-07-22T01:51:20;18.94;86.22
47757;SHT35;22147;52.388;13.390;2022-07-22T01:53:47;18.87;86.41
47757;SHT35;22147;52.388;13.390;2022-07-22T01:56:15;18.82;86.91
47757;SHT35;22147;52.388;13.390;2022-07-22T01:58:42;18.79;87.17
47757;SHT35;22147;52.388;13.390;2022-07-22T02:01:09;18.77;86.67
47757;SHT35;22147;52.388;13.390;2022-07-22T02:03:36;18.79;86.93
47757;SHT35;22147;52.388;13.390;2022-07-22T02:06:04;18.69;87.28
47757;SHT35;22147;52.388;13.390;2022-07-22T02:08:31;18.63;87.59
47757;SHT35;22147;52.388;13.390;2022-07-22T02:10:58;18.57;87.35
47757;SHT35;22147;52.388;13.390;2022-07-22T02:13:26;18.55;87.44
47757;SHT35;22147;52.388;13.390;2022-07-22T02:15:53;18.52;87.61
47757;SHT35;22147;52.388;13.390;2022-07-22T02:18:20;18.52;88.01
47757;SHT35;22147;52.388;13.390;2022-07-22T02:20:47;18.49;87.68
47757;SHT35;22147;52.388;13.390;2022-07-22T02:23:15;18.51;87.63
47757;SHT35;22147;52.388;13.390;2022-07-22T02:25:42;18.55;87.49
47757;SHT35;22147;52.388;13.390;2022-07-22T02:28:10;18.55;87.51
47757;SHT35;22147;52.388;13.390;2022-07-22T02:30:38;18.53;87.55
47757;SHT35;22147;52.388;13.390;2022-07-22T02:33:05;18.49;87.78
47757;SHT35;22147;52.388;13.390;2022-07-22T02:35:35;18.46;87.74
47757;SHT35;22147;52.388;13.390;2022-07-22T02:38:03;18.44;87.84
47757;SHT35;22147;52.388;13.390;2022-07-22T02:40:31;18.45;88.05
47757;SHT35;22147;52.388;13.390;2022-07-22T02:42:59;18.49;87.66
47757;SHT35;22147;52.388;13.390;2022-07-22T02:45:26;18.49;87.54
47757;SHT35;22147;52.388;13.390;2022-07-22T02:47:55;18.38;87.85
47757;SHT35;22147;52.388;13.390;2022-07-22T02:50:24;18.29;88.33
47757;SHT35;22147;52.388;13.390;2022-07-22T02:52:52;18.29;88.18
47757;SHT35;22147;52.388;13.390;2022-07-22T02:55:20;18.27;88.17
47757;SHT35;22147;52.388;13.390;2022-07-22T02:57:47;18.25;88.20
47757;SHT35;22147;52.388;13.390;2022-07-22T03:00:15;18.29;87.97
47757;SHT35;22147;52.388;13.390;2022-07-22T03:02:42;18.29;88.08
47757;SHT35;22147;52.388;13.390;2022-07-22T03:05:10;18.32;87.95
47757;SHT35;22147;52.388;13.390;2022-07-22T03:07:37;18.39;87.60
47757;SHT35;22147;52.388;13.390;2022-07-22T03:10:05;18.44;87.52
47757;SHT35;22147;52.388;13.390;2022-07-22T03:12:32;18.46;87.24
47757;SHT35;22147;52.388;13.390;2022-07-22T03:14:59;18.45;87.08
47757;SHT35;22147;52.388;13.390;2022-07-22T03:17:26;18.48;86.73
47757;SHT35;22147;52.388;13.390;2022-07-22T03:19:53;18.49;86.84
47757;SHT35;22147;52.388;13.390;2022-07-22T03:22:20;18.51;86.62
47757;SHT35;22147;52.388;13.390;2022-07-22T03:24:47;18.55;86.52
47757;SHT35;22147;52.388;13.390;2022-07-22T03:27:14;18.55;86.54
47757;SHT35;22147;52.388;13.390;2022-07-22T03:29:41;18.53;86.46
47757;SHT35;22147;52.388;13.390;2022-07-22T03:32:08;18.52;86.42
47757;SHT35;22147;52.388;13.390;2022-07-22T03:34:35;18.52;86.24
47757;SHT35;22147;52.388;13.390;2022-07-22T03:37:02;18.39;86.87
47757;SHT35;22147;52.388;13.390;2022-07-22T03:39:29;18.42;86.87
47757;SHT35;22147;52.388;13.390;2022-07-22T03:41:57;18.51;86.28
47757;SHT35;22147;52.388;13.390;2022-07-22T03:44:25;18.49;85.97
47757;SHT35;22147;52.388;13.390;2022-07-22T03:46:52;18.53;86.04
47757;SHT35;22147;52.388;13.390;2022-07-22T03:49:19;18.52;86.05
47757;SHT35;22147;52.388;13.390;2022-07-22T03:51:47;18.53;85.67
47757;SHT35;22147;52.388;13.390;2022-07-22T03:54:14;18.53;85.98
47757;SHT35;22147;52.388;13.390;2022-07-22T03:56:41;18.65;85.71
47757;SHT35;22147;52.388;13.390;2022-07-22T03:59:08;18.77;85.43
47757;SHT35;22147;52.388;13.390;2022-07-22T04:01:35;18.86;85.42
47757;SHT35;22147;52.388;13.390;2022-07-22T04:04:02;18.90;85.61
47757;SHT35;22147;52.388;13.390;2022-07-22T04:06:30;18.99;84.99
47757;SHT35;22147;52.388;13.390;2022-07-22T04:08:58;19.03;85.06
47757;SHT35;22147;52.388;13.390;2022-07-22T04:11:27;19.07;85.06
47757;SHT35;22147;52.388;13.390;2022-07-22T04:13:54;18.92;85.78
47757;SHT35;22147;52.388;13.390;2022-07-22T04:16:21;18.79;86.76
47757;SHT35;22147;52.388;13.390;2022-07-22T04:18:48;18.83;86.81
47757;SHT35;22147;52.388;13.390;2022-07-22T04:21:15;18.94;86.71
47757;SHT35;22147;52.388;13.390;2022-07-22T04:23:42;19.03;86.26
47757;SHT35;22147;52.388;13.390;2022-07-22T04:26:09;19.13;85.67
47757;SHT35;22147;52.388;13.390;2022-07-22T04:28:37;19.27;85.98
47757;SHT35;22147;52.388;13.390;2022-07-22T04:31:04;19.20;85.70
47757;SHT35;22147;52.388;13.390;2022-07-22T04:33:31;19.24;85.88
47757;SHT35;22147;52.388;13.390;2022-07-22T04:36:00;19.30;85.90
47757;SHT35;22147;52.388;13.390;2022-07-22T04:38:27;19.38;86.22
47757;SHT35;22147;52.388;13.390;2022-07-22T04:40:54;19.35;85.82
47757;SHT35;22147;52.388;13.390;2022-07-22T04:43:22;19.23;86.37
47757;SHT35;22147;52.388;13.390;2022-07-22T04:45:49;19.21;86.03
47757;SHT35;22147;52.388;13.390;2022-07-22T04:48:17;19.02;86.48
47757;SHT35;22147;52.388;13.390;2022-07-22T04:50:45;19.06;86.74
47757;SHT35;22147;52.388;13.390;2022-07-22T04:53:12;19.03;86.54
47757;SHT35;22147;52.388;13.390;2022-07-22T04:55:40;19.02;86.71
47757;SHT35;22147;52.388;13.390;2022-07-22T04:58:07;19.10;87.18
47757;SHT35;22147;52.388;13.390;2022-07-22T05:00:42;19.07;86.17
47757;SHT35;22147;52.388;13.390;2022-07-22T05:03:09;19.07;87.14
47757;SHT35;22147;52.388;13.390;2022-07-22T05:05:36;19.10;86.54
47757;SHT35;22147;52.388;13.390;2022-07-22T05:08:04;19.15;86.70
47757;SHT35;22147;52.388;13.390;2022-07-22T05:10:31;19.21;86.30
47757;SHT35;22147;52.388;13.390;2022-07-22T05:12:59;19.30;86.30
47757;SHT35;22147;52.388;13.390;2022-07-22T05:15:26;19.35;86.32
47757;SHT35;22147;52.388;13.390;2022-07-22T05:17:54;19.40;86.06
47757;SHT35;22147;52.388;13.390;2022-07-22T05:20:21;19.41;85.76
47757;SHT35;22147;52.388;13.390;2022-07-22T05:22:48;19.47;85.69
47757;SHT35;22147;52.388;13.390;2022-07-22T05:25:15;19.40;85.73
47757;SHT35;22147;52.388;13.390;2022-07-22T05:27:54;19.28;86.09
47757;SHT35;22147;52.388;13.390;2022-07-22T05:30:22;19.27;86.33
47757;SHT35;22147;52.388;13.390;2022-07-22T05:32:52;19.30;86.04
47757;SHT35;22147;52.388;13.390;2022-07-22T05:35:19;19.32;85.52
47757;SHT35;22147;52.388;13.390;2022-07-22T05:37:47;19.35;86.41
47757;SHT35;22147;52.388;13.390;2022-07-22T05:40:14;19.44;86.06
47757;SHT35;22147;52.388;13.390;2022-07-22T05:42:41;19.58;85.48
47757;SHT35;22147;52.388;13.390;2022-07-22T05:45:09;19.63;84.66
47757;SHT35;22147;52.388;13.390;2022-07-22T05:47:36;19.42;84.91
47757;SHT35;22147;52.388;13.390;2022-07-22T05:50:04;19.48;85.47
47757;SHT35;22147;52.388;13.390;2022-07-22T05:52:34;19.57;84.86
47757;SHT35;22147;52.388;13.390;2022-07-22T05:55:03;19.52;84.50
47757;SHT35;22147;52.388;13.390;2022-07-22T05:57:30;19.48;84.82
47757;SHT35;22147;52.388;13.390;2022-07-22T05:59:57;19.71;85.00
47757;SHT35;22147;52.388;13.390;2022-07-22T06:02:25;19.75;84.37
47757;SHT35;22147;52.388;13.390;2022-07-22T06:04:52;19.89;84.36
47757;SHT35;22147;52.388;13.390;2022-07-22T06:07:21;19.87;82.91
47757;SHT35;22147;52.388;13.390;2022-07-22T06:09:49;19.89;83.25
47757;SHT35;22147;52.388;13.390;2022-07-22T06:12:16;19.87;83.87
47757;SHT35;22147;52.388;13.390;2022-07-22T06:14:44;19.93;83.20
47757;SHT35;22147;52.388;13.390;2022-07-22T06:17:11;19.99;83.85
47757;SHT35;22147;52.388;13.390;2022-07-22T06:19:39;20.02;82.81
47757;SHT35;22147;52.388;13.390;2022-07-22T06:22:06;20.06;83.04
47757;SHT35;22147;52.388;13.390;2022-07-22T06:24:33;20.09;82.01
47757;SHT35;22147;52.388;13.390;2022-07-22T06:27:00;20.10;81.62
47757;SHT35;22147;52.388;13.390;2022-07-22T06:29:27;20.02;81.72
47757;SHT35;22147;52.388;13.390;2022-07-22T06:31:54;20.09;81.35
47757;SHT35;22147;52.388;13.390;2022-07-22T06:34:22;20.17;81.48
47757;SHT35;22147;52.388;13.390;2022-07-22T06:36:49;20.16;81.31
47757;SHT35;22147;52.388;13.390;2022-07-22T06:39:16;20.20;81.25
47757;SHT35;22147;52.388;13.390;2022-07-22T06:41:43;20.37;80.90
47757;SHT35;22147;52.388;13.390;2022-07-22T06:44:10;20.40;80.82
47757;SHT35;22147;52.388;13.390;2022-07-22T06:46:38;20.52;80.42
47757;SHT35;22147;52.388;13.390;2022-07-22T06:49:07;20.72;80.45
47757;SHT35;22147;52.388;13.390;2022-07-22T06:51:38;20.91;79.90
47757;SHT35;22147;52.388;13.390;2022-07-22T06:54:05;21.18;80.82
47757;SHT35;22147;52.388;13.390;2022-07-22T06:56:32;21.18;79.35
47757;SHT35;22147;52.388;13.390;2022-07-22T06:59:00;21.16;77.79
47757;SHT35;22147;52.388;13.390;2022-07-22T07:01:27;21.14;77.40
47757;SHT35;22147;52.388;13.390;2022-07-22T07:03:54;21.08;77.64
47757;SHT35;22147;52.388;13.390;2022-07-22T07:06:21;21.09;77.62
47757;SHT35;22147;52.388;13.390;2022-07-22T07:08:48;21.22;77.60
47757;SHT35;22147;52.388;13.390;2022-07-22T07:11:15;21.25;78.03
47757;SHT35;22147;52.388;13.390;2022-07-22T07:13:44;21.42;78.01
47757;SHT35;22147;52.388;13.390;2022-07-22T07:16:11;21.60;77.24
47757;SHT35;22147;52.388;13.390;2022-07-22T07:18:38;21.49;76.15
47757;SHT35;22147;52.388;13.390;2022-07-22T07:21:06;21.53;77.90
47757;SHT35;22147;52.388;13.390;2022-07-22T07:23:34;22.00;75.40
47757;SHT35;22147;52.388;13.390;2022-07-22T07:26:01;22.55;74.58
47757;SHT35;22147;52.388;13.390;2022-07-22T07:28:28;22.62;73.67
47757;SHT35;22147;52.388;13.390;2022-07-22T07:30:56;22.58;73.06
47757;SHT35;22147;52.388;13.390;2022-07-22T07:33:23;22.52;74.04
47757;SHT35;22147;52.388;13.390;2022-07-22T07:35:50;22.79;73.31
47757;SHT35;22147;52.388;13.390;2022-07-22T07:38:17;22.76;72.17
47757;SHT35;22147;52.388;13.390;2022-07-22T07:40:47;22.81;71.93
47757;SHT35;22147;52.388;13.390;2022-07-22T07:43:14;23.26;72.08
47757;SHT35;22147;52.388;13.390;2022-07-22T07:45:41;23.27;71.17
47757;SHT35;22147;52.388;13.390;2022-07-22T07:48:09;23.01;70.58
47757;SHT35;22147;52.388;13.390;2022-07-22T07:50:36;23.00;71.11
47757;SHT35;22147;52.388;13.390;2022-07-22T07:53:03;23.75;70.05
47757;SHT35;22147;52.388;13.390;2022-07-22T07:55:31;24.03;69.70
47757;SHT35;22147;52.388;13.390;2022-07-22T07:57:59;23.95;68.09
47757;SHT35;22147;52.388;13.390;2022-07-22T08:00:27;23.44;67.97
47757;SHT35;22147;52.388;13.390;2022-07-22T08:02:56;23.33;69.56
47757;SHT35;22147;52.388;13.390;2022-07-22T08:05:25;23.52;69.22
47757;SHT35;22147;52.388;13.390;2022-07-22T08:07:53;23.49;67.23
47757;SHT35;22147;52.388;13.390;2022-07-22T08:10:22;23.30;68.68
47757;SHT35;22147;52.388;13.390;2022-07-22T08:13:10;22.93;68.55
47757;SHT35;22147;52.388;13.390;2022-07-22T08:15:37;22.94;69.33
47757;SHT35;22147;52.388;13.390;2022-07-22T08:18:05;22.93;68.76
47757;SHT35;22147;52.388;13.390;2022-07-22T08:20:32;22.79;69.75
47757;SHT35;22147;52.388;13.390;2022-07-22T08:22:59;22.87;69.21
47757;SHT35;22147;52.388;13.390;2022-07-22T08:25:27;23.65;68.77
47757;SHT35;22147;52.388;13.390;2022-07-22T08:27:55;23.75;66.48
47757;SHT35;22147;52.388;13.390;2022-07-22T08:30:22;23.59;66.70
47757;SHT35;22147;52.388;13.390;2022-07-22T08:32:50;23.85;67.97
47757;SHT35;22147;52.388;13.390;2022-07-22T08:35:18;24.45;65.52
47757;SHT35;22147;52.388;13.390;2022-07-22T08:37:47;24.60;64.14
47757;SHT35;22147;52.388;13.390;2022-07-22T08:40:18;24.13;64.94
47757;SHT35;22147;52.388;13.390;2022-07-22T08:42:48;23.71;66.08
47757;SHT35;22147;52.388;13.390;2022-07-22T08:45:18;23.38;65.89
47757;SHT35;22147;52.388;13.390;2022-07-22T08:47:53;23.39;66.66
47757;SHT35;22147;52.388;13.390;2022-07-22T08:50:21;23.85;66.10
47757;SHT35;22147;52.388;13.390;2022-07-22T08:52:49;24.20;64.39
47757;SHT35;22147;52.388;13.390;2022-07-22T08:55:16;24.23;63.74
47757;SHT35;22147;52.388;13.390;2022-07-22T08:57:46;24.12;63.39
47757;SHT35;22147;52.388;13.390;2022-07-22T09:00:22;24.37;63.69
47757;SHT35;22147;52.388;13.390;2022-07-22T09:02:49;24.54;63.04
47757;SHT35;22147;52.388;13.390;2022-07-22T09:05:18;24.22;64.23
47757;SHT35;22147;52.388;13.390;2022-07-22T09:08:05;24.43;61.61
47757;SHT35;22147;52.388;13.390;2022-07-22T09:10:35;24.44;61.50
47757;SHT35;22147;52.388;13.390;2022-07-22T09:13:08;24.24;62.20
47757;SHT35;22147;52.388;13.390;2022-07-22T09:15:47;24.26;63.60
47757;SHT35;22147;52.388;13.390;2022-07-22T09:18:14;24.34;62.34
47757;SHT35;22147;52.388;13.390;2022-07-22T09:20:42;24.03;63.27
47757;SHT35;22147;52.388;13.390;2022-07-22T09:23:18;24.50;64.03
47757;SHT35;22147;52.388;13.390;2022-07-22T09:25:51;24.51;61.32
47757;SHT35;22147;52.388;13.390;2022-07-22T09:28:22;24.39;62.41
47757;SHT35;22147;52.388;13.390;2022-07-22T09:30:55;24.26;62.21
47757;SHT35;22147;52.388;13.390;2022-07-22T09:33:26;23.90;63.11
47757;SHT35;22147;52.388;13.390;2022-07-22T09:36:04;23.64;64.03
47757;SHT35;22147;52.388;13.390;2022-07-22T09:38:31;23.27;66.13
47757;SHT35;22147;52.388;13.390;2022-07-22T09:41:01;23.08;66.97
47757;SHT35;22147;52.388;13.390;2022-07-22T09:43:36;22.97;68.61
47757;SHT35;22147;52.388;13.390;2022-07-22T09:46:03;22.77;68.71
47757;SHT35;22147;52.388;13.390;2022-07-22T09:48:32;22.65;69.68
47757;SHT35;22147;52.388;13.390;2022-07-22T09:50:59;22.62;70.85
47757;SHT35;22147;52.388;13.390;2022-07-22T09:53:29;22.48;70.91
47757;SHT35;22147;52.388;13.390;2022-07-22T09:56:00;22.38;72.21
47757;SHT35;22147;52.388;13.390;2022-07-22T09:58:29;22.36;72.36
47757;SHT35;22147;52.388;13.390;2022-07-22T10:01:04;22.29;73.05
47757;SHT35;22147;52.388;13.390;2022-07-22T10:03:35;22.46;72.26
47757;SHT35;22147;52.388;13.390;2022-07-22T10:06:06;22.73;71.88
47757;SHT35;22147;52.388;13.390;2022-07-22T10:08:34;22.97;70.36
47757;SHT35;22147;52.388;13.390;2022-07-22T10:11:06;22.90;69.87
47757;SHT35;22147;52.388;13.390;2022-07-22T10:13:34;22.93;69.36
47757;SHT35;22147;52.388;13.390;2022-07-22T10:16:06;23.03;69.47
47757;SHT35;22147;52.388;13.390;2022-07-22T10:18:35;23.03;69.70
47757;SHT35;22147;52.388;13.390;2022-07-22T10:21:09;23.28;68.90
47757;SHT35;22147;52.388;13.390;2022-07-22T10:24:15;23.35;69.31
47757;SHT35;22147;52.388;13.390;2022-07-22T10:29:45;23.58;68.00
47757;SHT35;22147;52.388;13.390;2022-07-22T10:40:25;24.17;66.53
47757;SHT35;22147;52.388;13.390;2022-07-22T10:43:05;24.13;66.25
47757;SHT35;22147;52.388;13.390;2022-07-22T10:45:55;24.31;65.69
47757;SHT35;22147;52.388;13.390;2022-07-22T10:48:45;24.36;66.08
47757;SHT35;22147;52.388;13.390;2022-07-22T10:51:20;24.81;64.84
47757;SHT35;22147;52.388;13.390;2022-07-22T10:54:00;24.77;65.10
47757;SHT35;22147;52.388;13.390;2022-07-22T10:56:36;24.40;63.66
47757;SHT35;22147;52.388;13.390;2022-07-22T10:59:14;24.48;64.73
47757;SHT35;22147;52.388;13.390;2022-07-22T11:01:50;24.98;63.80
47757;SHT35;22147;52.388;13.390;2022-07-22T11:04:26;24.94;62.37
47757;SHT35;22147;52.388;13.390;2022-07-22T11:06:56;24.96;63.98
47757;SHT35;22147;52.388;13.390;2022-07-22T11:09:34;24.91;63.55
47757;SHT35;22147;52.388;13.390;2022-07-22T11:12:02;24.59;63.54
47757;SHT35;22147;52.388;13.390;2022-07-22T11:14:35;24.52;64.45
47757;SHT35;22147;52.388;13.390;2022-07-22T11:17:11;24.31;65.13
47757;SHT35;22147;52.388;13.390;2022-07-22T11:19:40;24.22;66.69
47757;SHT35;22147;52.388;13.390;2022-07-22T11:22:13;24.02;65.45
47757;SHT35;22147;52.388;13.390;2022-07-22T11:24:48;23.82;66.34
47757;SHT35;22147;52.388;13.390;2022-07-22T11:27:19;23.49;67.90
47757;SHT35;22147;52.388;13.390;2022-07-22T11:29:53;23.51;67.17
47757;SHT35;22147;52.388;13.390;2022-07-22T11:32:24;23.49;67.29
47757;SHT35;22147;52.388;13.390;2022-07-22T11:34:57;23.85;66.58
47757;SHT35;22147;52.388;13.390;2022-07-22T11:37:27;23.97;66.29
47757;SHT35;22147;52.388;13.390;2022-07-22T11:40:07;24.33;67.96
47757;SHT35;22147;52.388;13.390;2022-07-22T11:42:34;24.60;64.13
47757;SHT35;22147;52.388;13.390;2022-07-22T11:45:03;24.77;64.48
47757;SHT35;22147;52.388;13.390;2022-07-22T11:47:30;24.78;64.34
47757;SHT35;22147;52.388;13.390;2022-07-22T11:49:58;24.92;63.63
47757;SHT35;22147;52.388;13.390;2022-07-22T11:52:25;25.15;64.22
47757;SHT35;22147;52.388;13.390;2022-07-22T11:54:52;25.18;63.63
47757;SHT35;22147;52.388;13.390;2022-07-22T11:57:19;24.95;64.35
47757;SHT35;22147;52.388;13.390;2022-07-22T11:59:46;24.70;65.76
47757;SHT35;22147;52.388;13.390;2022-07-22T12:02:14;24.74;64.29
47757;SHT35;22147;52.388;13.390;2022-07-22T12:04:46;24.89;64.14
47757;SHT35;22147;52.388;13.390;2022-07-22T12:07:16;24.57;64.87
47757;SHT35;22147;52.388;13.390;2022-07-22T12:09:44;24.72;64.09
47757;SHT35;22147;52.388;13.390;2022-07-22T12:12:14;24.88;64.60
47757;SHT35;22147;52.388;13.390;2022-07-22T12:14:47;24.78;64.69
47757;SHT35;22147;52.388;13.390;2022-07-22T12:17:16;24.60;63.94
47757;SHT35;22147;52.388;13.390;2022-07-22T12:19:43;24.64;64.96
47757;SHT35;22147;52.388;13.390;2022-07-22T12:22:22;24.60;64.54
47757;SHT35;22147;52.388;13.390;2022-07-22T12:25:02;24.80;63.87
47757;SHT35;22147;52.388;13.390;2022-07-22T12:27:29;25.01;63.54
47757;SHT35;22147;52.388;13.390;2022-07-22T12:29:57;24.92;63.38
47757;SHT35;22147;52.388;13.390;2022-07-22T12:32:29;24.91;62.15
47757;SHT35;22147;52.388;13.390;2022-07-22T12:35:03;25.09;61.89
47757;SHT35;22147;52.388;13.390;2022-07-22T12:37:43;25.19;61.41
47757;SHT35;22147;52.388;13.390;2022-07-22T12:43:07;25.09;61.52
47757;SHT35;22147;52.388;13.390;2022-07-22T12:45:37;25.07;61.57
47757;SHT35;22147;52.388;13.390;2022-07-22T12:48:09;24.88;61.93
47757;SHT35;22147;52.388;13.390;2022-07-22T12:50:56;24.92;60.81
47757;SHT35;22147;52.388;13.390;2022-07-22T12:53:26;24.98;61.81
47757;SHT35;22147;52.388;13.390;2022-07-22T12:55:58;25.03;61.65
47757;SHT35;22147;52.388;13.390;2022-07-22T12:58:31;25.23;61.92
47757;SHT35;22147;52.388;13.390;2022-07-22T13:01:01;24.95;61.16
47757;SHT35;22147;52.388;13.390;2022-07-22T13:03:30;25.14;61.06
47757;SHT35;22147;52.388;13.390;2022-07-22T13:06:03;25.53;60.87
47757;SHT35;22147;52.388;13.390;2022-07-22T13:08:34;25.56;60.84
47757;SHT35;22147;52.388;13.390;2022-07-22T13:11:13;25.50;60.21
47757;SHT35;22147;52.388;13.390;2022-07-22T13:13:41;25.45;61.16
47757;SHT35;22147;52.388;13.390;2022-07-22T13:16:10;25.42;61.12
47757;SHT35;22147;52.388;13.390;2022-07-22T13:18:38;25.49;61.93
47757;SHT35;22147;52.388;13.390;2022-07-22T13:21:05;25.46;61.36
47757;SHT35;22147;52.388;13.390;2022-07-22T13:23:33;25.28;61.10
47757;SHT35;22147;52.388;13.390;2022-07-22T13:26:00;25.36;61.51
47757;SHT35;22147;52.388;13.390;2022-07-22T13:28:27;25.42;60.63
47757;SHT35;22147;52.388;13.390;2022-07-22T13:30:54;25.29;60.94
47757;SHT35;22147;52.388;13.390;2022-07-22T13:33:22;25.26;61.59
47757;SHT35;22147;52.388;13.390;2022-07-22T13:35:49;24.95;62.13
47757;SHT35;22147;52.388;13.390;2022-07-22T13:38:16;24.81;62.06
47757;SHT35;22147;52.388;13.390;2022-07-22T13:40:45;25.22;61.89
47757;SHT35;22147;52.388;13.390;2022-07-22T13:43:24;25.51;61.19
47757;SHT35;22147;52.388;13.390;2022-07-22T13:45:53;25.39;59.99
47757;SHT35;22147;52.388;13.390;2022-07-22T13:48:22;25.36;61.15
47757;SHT35;22147;52.388;13.390;2022-07-22T13:50:49;25.37;59.79
47757;SHT35;22147;52.388;13.390;2022-07-22T13:53:16;25.26;60.48
47757;SHT35;22147;52.388;13.390;2022-07-22T13:55:44;25.09;60.81
47757;SHT35;22147;52.388;13.390;2022-07-22T13:58:11;25.56;60.15
47757;SHT35;22147;52.388;13.390;2022-07-22T14:00:40;25.80;58.15
47757;SHT35;22147;52.388;13.390;2022-07-22T14:03:07;25.93;58.02
47757;SHT35;22147;52.388;13.390;2022-07-22T14:05:34;26.11;57.79
47757;SHT35;22147;52.388;13.390;2022-07-22T14:08:02;26.34;57.49
47757;SHT35;22147;52.388;13.390;2022-07-22T14:10:29;26.45;56.85
47757;SHT35;22147;52.388;13.390;2022-07-22T14:12:56;26.75;54.84
47757;SHT35;22147;52.388;13.390;2022-07-22T14:15:23;26.86;55.77
47757;SHT35;22147;52.388;13.390;2022-07-22T14:17:51;26.55;56.22
47757;SHT35;22147;52.388;13.390;2022-07-22T14:20:18;26.24;55.71
47757;SHT35;22147;52.388;13.390;2022-07-22T14:22:45;26.04;56.76
47757;SHT35;22147;52.388;13.390;2022-07-22T14:25:12;25.80;56.94
47757;SHT35;22147;52.388;13.390;2022-07-22T14:27:39;26.04;57.22
47757;SHT35;22147;52.388;13.390;2022-07-22T14:30:07;26.61;55.84
47757;SHT35;22147;52.388;13.390;2022-07-22T14:32:34;27.14;56.27
47757;SHT35;22147;52.388;13.390;2022-07-22T14:35:01;27.38;52.92
47757;SHT35;22147;52.388;13.390;2022-07-22T14:37:29;26.84;53.84
47757;SHT35;22147;52.388;13.390;2022-07-22T14:39:56;26.89;54.66
47757;SHT35;22147;52.388;13.390;2022-07-22T14:42:24;27.30;53.17
47757;SHT35;22147;52.388;13.390;2022-07-22T14:44:51;27.76;52.75
47757;SHT35;22147;52.388;13.390;2022-07-22T14:47:18;27.96;52.29
47757;SHT35;22147;52.388;13.390;2022-07-22T14:49:45;27.72;51.57
47757;SHT35;22147;52.388;13.390;2022-07-22T14:52:12;26.93;52.11
47757;SHT35;22147;52.388;13.390;2022-07-22T14:54:39;27.11;52.48
47757;SHT35;22147;52.388;13.390;2022-07-22T14:57:06;26.68;52.86
47757;SHT35;22147;52.388;13.390;2022-07-22T14:59:34;26.70;56.55
47757;SHT35;22147;52.388;13.390;2022-07-22T15:02:01;27.45;52.85
47757;SHT35;22147;52.388;13.390;2022-07-22T15:04:28;28.03;50.75
47757;SHT35;22147;52.388;13.390;2022-07-22T15:06:55;27.82;49.16
47757;SHT35;22147;52.388;13.390;2022-07-22T15:09:22;27.54;50.14
47757;SHT35;22147;52.388;13.390;2022-07-22T15:11:49;27.68;50.39
47757;SHT35;22147;52.388;13.390;2022-07-22T15:14:19;27.03;53.03
47757;SHT35;22147;52.388;13.390;2022-07-22T15:16:46;26.91;52.96
47757;SHT35;22147;52.388;13.390;2022-07-22T15:19:13;27.26;52.49
47757;SHT35;22147;52.388;13.390;2022-07-22T15:21:40;27.31;51.30
47757;SHT35;22147;52.388;13.390;2022-07-22T15:24:08;27.30;51.04
47757;SHT35;22147;52.388;13.390;2022-07-22T15:26:35;27.26;51.24
47757;SHT35;22147;52.388;13.390;2022-07-22T15:29:02;27.26;51.33
47757;SHT35;22147;52.388;13.390;2022-07-22T15:31:29;26.70;52.36
47757;SHT35;22147;52.388;13.390;2022-07-22T15:33:58;27.33;51.48
47757;SHT35;22147;52.388;13.390;2022-07-22T15:36:26;27.41;50.44
47757;SHT35;22147;52.388;13.390;2022-07-22T15:38:53;27.65;50.49
47757;SHT35;22147;52.388;13.390;2022-07-22T15:41:27;28.16;49.92
47757;SHT35;22147;52.388;13.390;2022-07-22T15:43:55;27.76;49.18
47757;SHT35;22147;52.388;13.390;2022-07-22T15:46:23;27.88;49.06